Time;durP1;ratioP1;P1;durP2;ratioP2;P2;SDS_P1;SDS_P2;PMS_P1;PMS_P2;Temp;Humidity;BMP_temperature;BMP_pressure;BME280_temperature;BME280_humidity;BME280_pressure;Samples;Min_cycle;Max_cycle;Signal;HPM_P1;HPM_P2
2023/05/30 00:01:47;;;;;;;17.02;5.28;;;;;;;12.67;59.58;102510.22;5074642;28;20021;-66
2023/05/30 00:04:13;;;;;;;19.65;5.63;;;;;;;12.65;59.76;102504.09;5076416;28;20028;-65
2023/05/30 00:06:38;;;;;;;16.42;5.25;;;;;;;12.80;59.69;102499.84;5073285;28;20058;-66
2023/05/30 00:09:07;;;;;;;23.60;5.75;;;;;;;12.79;59.80;102498.97;5074382;28;20017;-66
2023/05/30 00:11:33;;;;;;;18.63;5.93;;;;;;;12.61;60.21;102500.66;5104469;28;20082;-65
2023/05/30 00:13:58;;;;;;;18.38;5.10;;;;;;;12.80;60.06;102518.56;5073424;28;20109;-65
2023/05/30 00:16:24;;;;;;;16.77;5.43;;;;;;;12.62;60.32;102498.91;5072772;28;20041;-65
2023/05/30 00:18:52;;;;;;;18.25;6.22;;;;;;;12.48;61.16;102519.03;5074091;28;20021;-66
2023/05/30 00:21:18;;;;;;;15.38;5.65;;;;;;;12.45;61.33;102513.00;5085288;28;20086;-65
2023/05/30 00:23:45;;;;;;;16.88;5.85;;;;;;;12.47;62.07;102511.09;5077742;28;20020;-65
2023/05/30 00:26:11;;;;;;;25.77;6.55;;;;;;;12.45;61.94;102510.31;5073873;28;20027;-66
2023/05/30 00:28:37;;;;;;;20.02;5.75;;;;;;;12.42;61.88;102510.44;5074085;28;20024;-65
2023/05/30 00:31:03;;;;;;;14.85;5.57;;;;;;;12.44;62.13;102509.47;5073568;28;20056;-65
2023/05/30 00:33:28;;;;;;;15.23;5.57;;;;;;;12.38;62.44;102512.41;5064121;28;20167;-65
2023/05/30 00:35:53;;;;;;;20.25;5.30;;;;;;;12.31;62.87;102512.72;5071166;28;20570;-65
2023/05/30 00:38:20;;;;;;;16.48;5.15;;;;;;;12.36;62.59;102511.59;5085266;28;20387;-65
2023/05/30 00:40:45;;;;;;;14.40;5.10;;;;;;;12.31;62.96;102512.72;5085031;28;20036;-65
2023/05/30 00:43:11;;;;;;;15.98;5.20;;;;;;;12.18;63.96;102517.72;5073552;28;20033;-65
2023/05/30 00:45:37;;;;;;;15.23;5.60;;;;;;;12.01;63.97;102500.63;5071596;28;20071;-65
2023/05/30 00:48:04;;;;;;;18.35;6.07;;;;;;;12.18;64.17;102517.72;5052398;28;20025;-65
2023/05/30 00:50:31;;;;;;;17.55;5.38;;;;;;;12.16;64.31;102532.91;5069563;28;20504;-65
2023/05/30 00:52:58;;;;;;;14.77;5.05;;;;;;;12.08;64.34;102537.72;5073007;28;20096;-65
2023/05/30 00:55:26;;;;;;;17.17;5.55;;;;;;;12.15;64.36;102534.72;5081493;28;20039;-65
2023/05/30 00:57:52;;;;;;;15.20;5.25;;;;;;;12.19;64.65;102525.66;5072392;28;20454;-65
2023/05/30 01:00:18;;;;;;;15.93;5.13;;;;;;;12.15;64.41;102533.88;5061153;28;20036;-65
2023/05/30 01:02:44;;;;;;;15.27;6.03;;;;;;;11.93;64.97;102540.09;5070823;28;20024;-65
2023/05/30 01:05:14;;;;;;;14.00;5.70;;;;;;;12.02;64.74;102523.69;5072365;28;20115;-66
2023/05/30 01:07:43;;;;;;;19.67;5.85;;;;;;;12.13;65.04;102533.91;5071710;28;20096;-65
2023/05/30 01:10:11;;;;;;;20.17;6.35;;;;;;;11.85;65.70;102542.19;5105880;28;20032;-65
2023/05/30 01:12:52;;;;;;;17.58;5.25;;;;;;;12.08;64.52;102525.22;5079971;28;20047;-65
2023/05/30 01:15:27;;;;;;;17.40;5.20;;;;;;;12.05;65.32;102536.91;5072633;28;20032;-65
2023/05/30 01:18:01;;;;;;;18.27;5.70;;;;;;;12.15;65.39;102529.41;5072815;28;20082;-65
2023/05/30 01:20:37;;;;;;;18.40;5.28;;;;;;;12.16;65.11;102538.25;5073123;28;20400;-66
2023/05/30 01:23:41;;;;;;;16.27;5.72;;;;;;;12.26;64.45;102523.56;5072688;28;20036;-65
2023/05/30 01:26:23;;;;;;;18.17;5.70;;;;;;;12.17;65.24;102526.66;5067246;28;20024;-65
2023/05/30 01:28:51;;;;;;;17.27;5.82;;;;;;;12.06;65.30;102521.78;5079870;28;20509;-65
2023/05/30 01:31:16;;;;;;;15.98;7.32;;;;;;;11.88;66.03;102520.72;5086125;28;20016;-65
2023/05/30 01:33:44;;;;;;;15.70;5.63;;;;;;;12.01;65.50;102523.78;5072268;28;20032;-65
2023/05/30 01:36:10;;;;;;;23.30;6.88;;;;;;;12.03;65.50;102525.44;5072021;28;20035;-65
2023/05/30 01:38:37;;;;;;;19.27;6.20;;;;;;;12.09;65.49;102529.66;5071577;28;20029;-65
2023/05/30 01:41:07;;;;;;;23.17;6.82;;;;;;;11.96;65.89;102541.75;5067506;28;20028;-65
2023/05/30 01:43:54;;;;;;;22.08;6.18;;;;;;;12.01;66.03;102535.31;5071987;28;20442;-65
2023/05/30 01:46:36;;;;;;;23.02;6.30;;;;;;;12.02;66.19;102533.50;5062282;28;20035;-65
2023/05/30 01:49:16;;;;;;;18.85;6.18;;;;;;;11.96;66.13;102536.41;5069244;28;20047;-65
2023/05/30 01:51:52;;;;;;;19.80;5.80;;;;;;;12.03;65.77;102545.91;5070515;28;20073;-65
2023/05/30 01:54:20;;;;;;;21.50;6.18;;;;;;;11.83;66.64;102552.03;5072258;28;20445;-65
2023/05/30 01:56:50;;;;;;;20.10;5.93;;;;;;;11.66;67.31;102541.19;5071530;28;20396;-65
2023/05/30 01:59:19;;;;;;;16.98;5.25;;;;;;;11.83;66.78;102552.91;5064263;28;20105;-65
2023/05/30 02:01:46;;;;;;;18.50;6.13;;;;;;;11.67;67.35;102546.44;5058890;28;20021;-65
2023/05/30 02:04:11;;;;;;;26.52;6.45;;;;;;;11.74;67.21;102550.63;5070121;28;20032;-65
2023/05/30 02:06:37;;;;;;;24.10;6.93;;;;;;;11.65;66.83;102542.09;5071066;28;20154;-66
2023/05/30 02:09:06;;;;;;;17.70;6.38;;;;;;;11.75;67.09;102552.34;5072020;28;20145;-65
2023/05/30 02:11:31;;;;;;;19.90;6.20;;;;;;;11.80;67.03;102555.69;5071893;28;20475;-65
2023/05/30 02:14:00;;;;;;;16.90;6.40;;;;;;;11.59;67.83;102565.44;5070486;28;20024;-66
2023/05/30 02:16:26;;;;;;;20.23;6.50;;;;;;;11.53;67.94;102563.00;5071810;28;20020;-65
2023/05/30 02:18:52;;;;;;;20.45;5.78;;;;;;;11.50;68.10;102560.47;5072037;28;20527;-66
2023/05/30 02:21:21;;;;;;;26.20;7.15;;;;;;;11.56;67.81;102568.22;5078008;28;20380;-65
2023/05/30 02:23:46;;;;;;;19.77;6.00;;;;;;;11.39;68.31;102551.16;5057351;28;20418;-65
2023/05/30 02:26:12;;;;;;;23.63;6.50;;;;;;;11.42;68.80;102561.69;5061940;28;20087;-65
2023/05/30 02:28:40;;;;;;;20.38;6.10;;;;;;;11.21;69.35;102547.41;5050645;28;20029;-66
2023/05/30 02:31:05;;;;;;;18.65;6.05;;;;;;;11.33;69.00;102553.13;5058329;28;20090;-65
2023/05/30 02:33:30;;;;;;;19.77;6.47;;;;;;;11.41;68.79;102562.59;5070644;28;20434;-65
2023/05/30 02:35:56;;;;;;;21.92;6.20;;;;;;;11.43;68.63;102558.09;5055865;28;20059;-66
2023/05/30 02:38:21;;;;;;;23.33;6.57;;;;;;;11.52;68.19;102563.91;5064184;28;20119;-65
2023/05/30 02:40:49;;;;;;;21.13;6.07;;;;;;;11.37;68.53;102549.41;5068431;28;20024;-65
2023/05/30 02:43:17;;;;;;;20.38;6.60;;;;;;;11.41;68.69;102559.94;5071725;28;20048;-65
2023/05/30 02:45:44;;;;;;;18.02;6.40;;;;;;;11.50;68.44;102555.13;5064232;28;20025;-65
2023/05/30 02:48:10;;;;;;;19.85;6.13;;;;;;;11.34;68.97;102544.19;5062989;28;20029;-66
2023/05/30 02:50:35;;;;;;;17.50;5.97;;;;;;;11.19;69.50;102546.59;5070224;28;20479;-65
2023/05/30 02:53:01;;;;;;;19.98;6.07;;;;;;;11.39;69.01;102551.16;5070111;28;20100;-65
2023/05/30 02:55:29;;;;;;;21.17;7.20;;;;;;;11.15;69.92;102540.53;5052361;28;20045;-65
2023/05/30 02:57:54;;;;;;;20.05;6.22;;;;;;;11.23;69.61;102545.53;5083314;28;20048;-65
2023/05/30 03:00:20;;;;;;;22.95;6.78;;;;;;;11.39;69.27;102548.50;5066856;28;20049;-65
2023/05/30 03:02:46;;;;;;;21.42;6.47;;;;;;;11.20;69.62;102543.00;5065457;28;20021;-65
2023/05/30 03:05:12;;;;;;;17.98;5.70;;;;;;;11.30;69.71;102547.91;5067780;28;20078;-65
2023/05/30 03:07:37;;;;;;;19.92;6.20;;;;;;;11.07;69.72;102540.81;5067167;28;20025;-65
2023/05/30 03:10:04;;;;;;;18.55;6.25;;;;;;;11.04;70.26;102535.59;5051085;28;20025;-66
2023/05/30 03:12:29;;;;;;;19.33;6.18;;;;;;;11.12;70.02;102545.97;5069015;28;20028;-65
2023/05/30 03:14:55;;;;;;;21.95;7.13;;;;;;;11.13;69.78;102553.03;5068459;28;20029;-65
2023/05/30 03:17:21;;;;;;;20.20;6.32;;;;;;;11.16;70.04;102555.56;5070701;28;20036;-65
2023/05/30 03:19:47;;;;;;;18.63;6.60;;;;;;;11.10;70.02;102551.34;5053105;28;20064;-65
2023/05/30 03:22:12;;;;;;;20.25;6.95;;;;;;;10.98;70.31;102565.13;5071304;28;20060;-65
2023/05/30 03:24:39;;;;;;;17.83;6.10;;;;;;;11.18;70.08;102567.03;5068443;28;20025;-65
2023/05/30 03:27:04;;;;;;;19.70;6.50;;;;;;;11.22;69.94;102560.66;5070471;28;20104;-65
2023/05/30 03:29:31;;;;;;;20.48;6.82;;;;;;;11.14;70.35;102555.59;5073565;28;20099;-65
2023/05/30 03:31:56;;;;;;;20.40;6.78;;;;;;;11.20;70.43;102562.50;5069966;28;20039;-66
2023/05/30 03:34:22;;;;;;;22.98;7.28;;;;;;;11.13;70.64;102571.66;5065772;28;20378;-65
2023/05/30 03:36:52;;;;;;;22.25;6.47;;;;;;;11.14;70.84;102573.38;5064779;28;20028;-65
2023/05/30 03:39:21;;;;;;;24.48;7.10;;;;;;;11.11;70.55;102569.03;5054851;28;20021;-65
2023/05/30 03:41:46;;;;;;;20.90;6.88;;;;;;;11.18;70.47;102580.34;5073095;28;20395;-65
2023/05/30 03:44:12;;;;;;;26.90;6.40;;;;;;;11.21;70.60;102576.72;5066206;28;20028;-66
2023/05/30 03:46:37;;;;;;;29.85;7.95;;;;;;;11.31;70.62;102584.25;5055927;28;20025;-65
2023/05/30 03:49:03;;;;;;;23.08;7.03;;;;;;;11.46;69.82;102593.47;5074629;28;20532;-65
2023/05/30 03:51:28;;;;;;;18.75;6.65;;;;;;;11.24;70.43;102595.22;5056885;28;20108;-65
2023/05/30 03:53:53;;;;;;;19.20;6.18;;;;;;;11.09;71.56;102594.88;5058219;28;20055;-66
2023/05/30 03:56:19;;;;;;;23.48;7.22;;;;;;;11.17;70.62;102585.72;5070447;28;20143;-65
2023/05/30 03:58:45;;;;;;;21.88;7.35;;;;;;;11.08;71.28;102585.13;5054285;28;20033;-65
2023/05/30 04:01:10;;;;;;;19.27;6.85;;;;;;;11.21;70.89;102588.22;5054033;28;20040;-65
2023/05/30 04:03:38;;;;;;;23.70;7.30;;;;;;;11.07;71.72;102595.84;5060722;28;20028;-65
2023/05/30 04:06:08;;;;;;;19.88;6.78;;;;;;;11.03;71.63;102595.09;5058437;28;20025;-65
2023/05/30 04:08:33;;;;;;;16.10;6.70;;;;;;;11.01;71.67;102588.97;5071835;28;20017;-65
2023/05/30 04:10:59;;;;;;;26.02;7.82;;;;;;;11.18;71.77;102599.00;5070263;28;20130;-65
2023/05/30 04:13:24;;;;;;;19.55;6.78;;;;;;;11.21;71.46;102598.00;5056856;28;20044;-66
2023/05/30 04:15:50;;;;;;;22.02;6.93;;;;;;;11.05;71.92;102585.25;5066062;28;20029;-65
2023/05/30 04:18:15;;;;;;;22.08;7.05;;;;;;;11.02;71.85;102580.03;5067646;28;20031;-65
2023/05/30 04:20:40;;;;;;;21.60;7.20;;;;;;;11.01;72.26;102591.63;5055515;28;20442;-65
2023/05/30 04:23:06;;;;;;;23.38;7.07;;;;;;;11.01;72.83;102590.75;5097815;28;20040;-65
2023/05/30 04:25:35;;;;;;;20.73;6.70;;;;;;;10.96;72.49;102584.72;5063092;28;20228;-65
2023/05/30 04:28:01;;;;;;;18.05;7.43;;;;;;;11.19;72.11;102597.19;5044125;28;20032;-65
2023/05/30 04:30:26;;;;;;;25.30;7.40;;;;;;;11.11;72.37;102590.34;5055876;28;20480;-65
2023/05/30 04:32:52;;;;;;;27.10;7.95;;;;;;;11.13;72.23;102584.97;5073149;28;20029;-65
2023/05/30 04:35:18;;;;;;;26.30;7.93;;;;;;;11.17;72.48;102581.25;5067852;28;20085;-65
2023/05/30 04:37:44;;;;;;;27.65;7.38;;;;;;;11.24;71.71;102585.44;5071844;28;20035;-65
2023/05/30 04:40:13;;;;;;;24.42;6.95;;;;;;;11.19;72.37;102599.84;5065489;28;20033;-65
2023/05/30 04:42:42;;;;;;;23.13;7.53;;;;;;;11.12;72.81;102599.22;5071962;28;20412;-65
2023/05/30 04:45:14;;;;;;;21.30;7.97;;;;;;;11.19;72.65;102586.53;5073261;28;20055;-65
2023/05/30 04:47:40;;;;;;;22.42;6.70;;;;;;;11.17;72.31;102591.91;5072677;28;20024;-65
2023/05/30 04:50:06;;;;;;;17.83;6.95;;;;;;;11.31;72.03;102588.72;5059279;28;20094;-65
2023/05/30 04:52:32;;;;;;;26.08;7.90;;;;;;;11.29;71.93;102588.78;5053890;28;20391;-65
2023/05/30 04:54:57;;;;;;;19.23;7.38;;;;;;;11.35;72.15;102583.25;5056812;28;20444;-65
2023/05/30 04:57:22;;;;;;;23.77;7.10;;;;;;;11.42;72.01;102589.19;5071774;28;20044;-66
2023/05/30 04:59:48;;;;;;;17.42;7.47;;;;;;;11.45;71.74;102590.88;5067994;28;20033;-66
2023/05/30 05:02:13;;;;;;;27.60;8.65;;;;;;;11.52;71.51;102595.03;5070486;28;20085;-66
2023/05/30 05:04:39;;;;;;;22.33;7.18;;;;;;;11.32;72.18;102587.78;5072335;28;20099;-65
2023/05/30 05:07:07;;;;;;;25.63;8.52;;;;;;;11.34;72.54;102589.47;5071526;28;20106;-66
2023/05/30 05:09:32;;;;;;;21.63;7.45;;;;;;;11.27;71.86;102584.47;5071641;28;20016;-66
2023/05/30 05:11:57;;;;;;;15.40;7.03;;;;;;;11.37;71.92;102592.03;5060394;28;20396;-65
2023/05/30 05:14:23;;;;;;;18.90;7.47;;;;;;;11.40;71.70;102599.03;5052637;28;20150;-65
2023/05/30 05:16:49;;;;;;;22.00;7.68;;;;;;;11.26;72.17;102578.25;5054481;28;20510;-65
2023/05/30 05:19:14;;;;;;;21.00;7.90;;;;;;;11.42;72.16;102588.34;5068670;28;20036;-65
2023/05/30 05:21:40;;;;;;;25.13;8.20;;;;;;;11.55;71.95;102600.22;5071536;28;20443;-65
2023/05/30 05:24:07;;;;;;;22.92;7.97;;;;;;;11.57;71.68;102601.06;5069950;28;20088;-65
2023/05/30 05:26:33;;;;;;;17.23;8.02;;;;;;;11.50;72.02;102586.22;5070595;28;20032;-66
2023/05/30 05:28:58;;;;;;;20.05;8.10;;;;;;;11.49;71.51;102593.34;5071287;28;20024;-65
2023/05/30 05:31:24;;;;;;;21.60;7.80;;;;;;;11.41;72.19;102586.56;5069162;28;20021;-65
2023/05/30 05:33:50;;;;;;;17.25;7.07;;;;;;;11.49;71.73;102593.34;5056886;28;20111;-65
2023/05/30 05:36:15;;;;;;;21.73;7.53;;;;;;;11.58;71.62;102592.13;5052860;28;20518;-65
2023/05/30 05:38:45;;;;;;;20.20;7.80;;;;;;;11.51;71.56;102599.50;5052782;28;20048;-65
2023/05/30 05:41:11;;;;;;;22.02;7.45;;;;;;;11.59;72.13;102597.41;5085014;28;20025;-65
2023/05/30 05:43:36;;;;;;;18.73;7.30;;;;;;;11.64;71.82;102589.22;5061270;28;20036;-66
2023/05/30 05:46:02;;;;;;;18.58;6.88;;;;;;;11.58;72.11;102594.78;5070716;28;20102;-65
2023/05/30 05:48:28;;;;;;;18.50;8.07;;;;;;;11.63;71.18;102590.16;5070539;28;20023;-66
2023/05/30 05:50:53;;;;;;;18.63;7.95;;;;;;;11.73;70.44;102599.50;5071989;28;20043;-65
2023/05/30 05:53:18;;;;;;;22.40;8.15;;;;;;;11.82;70.59;102596.50;5072272;28;20032;-66
2023/05/30 05:55:45;;;;;;;21.02;7.20;;;;;;;11.89;69.91;102606.94;5071873;28;20048;-65
2023/05/30 05:58:11;;;;;;;22.50;8.50;;;;;;;11.79;70.39;102604.63;5071983;28;20036;-65
2023/05/30 06:00:37;;;;;;;19.80;7.85;;;;;;;11.77;70.53;102613.59;5071908;28;20104;-66
2023/05/30 06:03:02;;;;;;;19.67;8.27;;;;;;;11.68;70.64;102598.84;5069963;28;20032;-66
2023/05/30 06:05:30;;;;;;;20.55;7.40;;;;;;;11.76;70.58;102612.72;5068570;28;20111;-65
2023/05/30 06:07:57;;;;;;;23.33;8.57;;;;;;;11.64;71.49;102604.34;5069265;28;20020;-65
2023/05/30 06:10:26;;;;;;;21.42;8.32;;;;;;;11.62;70.89;102604.41;5071947;28;20464;-65
2023/05/30 06:12:51;;;;;;;18.80;7.90;;;;;;;11.57;71.06;102612.56;5070778;28;20025;-65
2023/05/30 06:15:16;;;;;;;23.65;8.43;;;;;;;11.59;70.93;102613.41;5054916;28;20481;-65
2023/05/30 06:17:42;;;;;;;19.50;7.63;;;;;;;11.72;70.43;102610.25;5052186;28;20033;-65
2023/05/30 06:20:08;;;;;;;14.68;7.43;;;;;;;11.66;70.66;102602.50;5068380;28;20039;-66
2023/05/30 06:22:33;;;;;;;16.40;7.55;;;;;;;11.71;70.81;102612.03;5067608;28;20028;-65
2023/05/30 06:24:58;;;;;;;21.23;7.43;;;;;;;11.76;70.45;102614.50;5069065;28;20024;-65
2023/05/30 06:27:24;;;;;;;20.17;6.95;;;;;;;11.92;69.96;102607.69;5070329;28;20115;-66
2023/05/30 06:29:49;;;;;;;17.95;8.15;;;;;;;11.85;69.80;102613.28;5070124;28;20024;-66
2023/05/30 06:32:15;;;;;;;18.70;7.75;;;;;;;11.90;69.96;102622.88;5071616;28;20108;-65
2023/05/30 06:34:40;;;;;;;18.92;8.25;;;;;;;11.89;70.60;102614.94;5070626;28;20025;-65
2023/05/30 06:37:06;;;;;;;14.45;7.47;;;;;;;12.01;69.78;102611.78;5070165;28;20033;-65
2023/05/30 06:39:31;;;;;;;20.70;7.55;;;;;;;12.00;70.06;102608.25;5071620;28;20387;-65
2023/05/30 06:41:57;;;;;;;15.68;7.22;;;;;;;12.32;69.25;102613.16;5071955;28;20525;-65
2023/05/30 06:44:22;;;;;;;15.13;7.28;;;;;;;12.21;68.87;102602.97;5070877;28;20048;-66
2023/05/30 06:46:47;;;;;;;28.92;8.30;;;;;;;12.21;68.59;102609.16;5070522;28;20024;-66
2023/05/30 06:49:13;;;;;;;17.08;7.35;;;;;;;12.37;68.65;102609.38;5071577;28;20031;-65
2023/05/30 06:51:38;;;;;;;21.33;8.38;;;;;;;12.46;69.18;102608.97;5070291;28;20024;-65
2023/05/30 06:54:04;;;;;;;17.77;8.27;;;;;;;12.52;68.31;102615.00;5069790;28;20391;-65
2023/05/30 06:56:30;;;;;;;19.90;7.95;;;;;;;12.54;67.49;102624.69;5070389;28;20032;-66
2023/05/30 06:58:57;;;;;;;19.10;7.38;;;;;;;12.28;67.50;102609.75;5071010;28;20100;-66
2023/05/30 07:01:23;;;;;;;18.90;8.52;;;;;;;12.47;67.62;102624.06;5071631;28;20438;-66
2023/05/30 07:03:48;;;;;;;17.23;7.70;;;;;;;12.60;67.40;102629.75;5074762;28;20028;-65
2023/05/30 07:06:17;;;;;;;21.10;7.88;;;;;;;12.52;67.20;102628.34;5075380;28;20024;-65
2023/05/30 07:08:42;;;;;;;17.75;7.93;;;;;;;12.70;67.00;102620.38;5075611;28;20516;-65
2023/05/30 07:11:08;;;;;;;13.93;7.68;;;;;;;12.81;66.86;102625.28;5075564;28;20074;-64
2023/05/30 07:13:33;;;;;;;18.83;8.48;;;;;;;12.94;66.76;102629.16;5075350;28;20056;-64
2023/05/30 07:15:58;;;;;;;14.82;7.43;;;;;;;12.87;64.83;102621.47;5074662;28;20073;-64
2023/05/30 07:18:24;;;;;;;14.32;7.18;;;;;;;12.78;65.29;102630.75;5073688;28;20020;-64
2023/05/30 07:20:49;;;;;;;17.63;8.52;;;;;;;12.75;64.67;102635.38;5074999;28;20032;-64
2023/05/30 07:23:15;;;;;;;18.83;8.38;;;;;;;12.69;65.19;102623.16;5073952;28;20024;-64
2023/05/30 07:25:40;;;;;;;18.52;8.02;;;;;;;13.01;64.64;102618.19;5074474;28;20431;-64
2023/05/30 07:28:06;;;;;;;12.73;7.22;;;;;;;13.29;64.09;102625.84;5073599;28;20530;-64
2023/05/30 07:30:31;;;;;;;20.45;8.98;;;;;;;13.50;63.62;102622.19;5074621;28;20107;-64
2023/05/30 07:32:59;;;;;;;18.25;7.90;;;;;;;13.72;62.51;102619.34;5075240;28;20020;-64
2023/05/30 07:35:24;;;;;;;18.13;8.40;;;;;;;14.04;61.30;102628.50;5074513;28;20028;-64
2023/05/30 07:37:52;;;;;;;14.48;7.70;;;;;;;14.25;61.30;102626.56;5073351;28;20108;-65
2023/05/30 07:40:18;;;;;;;14.75;7.55;;;;;;;14.25;60.63;102639.94;5073668;28;20051;-64
2023/05/30 07:42:44;;;;;;;16.08;8.38;;;;;;;14.24;61.30;102638.22;5075143;28;20029;-64
2023/05/30 07:45:09;;;;;;;14.27;7.20;;;;;;;14.08;60.46;102647.94;5073072;28;20032;-64
2023/05/30 07:47:35;;;;;;;19.95;7.57;;;;;;;13.88;60.52;102646.22;5074812;28;20078;-64
2023/05/30 07:50:01;;;;;;;15.00;7.13;;;;;;;13.80;61.50;102645.75;5074403;28;20487;-65
2023/05/30 07:52:26;;;;;;;14.30;7.43;;;;;;;13.80;61.52;102641.25;5074806;28;20031;-64
2023/05/30 07:54:51;;;;;;;14.85;8.07;;;;;;;13.68;61.08;102631.16;5074079;28;20131;-64
2023/05/30 07:57:17;;;;;;;17.45;8.73;;;;;;;13.57;61.73;102637.00;5073317;28;20464;-64
2023/05/30 07:59:43;;;;;;;12.20;7.88;;;;;;;13.69;61.69;102627.53;5074077;28;20476;-65
2023/05/30 08:02:09;;;;;;;17.38;8.10;;;;;;;13.88;61.40;102627.50;5073605;28;20074;-64
2023/05/30 08:04:35;;;;;;;18.17;8.13;;;;;;;14.16;60.94;102626.16;5074000;28;20045;-64
2023/05/30 08:07:02;;;;;;;16.95;8.45;;;;;;;14.57;60.02;102626.78;5073345;28;20025;-64
2023/05/30 08:09:28;;;;;;;14.90;7.80;;;;;;;14.84;58.66;102618.25;5074667;28;20067;-64
2023/05/30 08:11:54;;;;;;;18.05;7.75;;;;;;;15.19;58.76;102619.91;5073851;28;20048;-65
2023/05/30 08:14:19;;;;;;;11.63;7.20;;;;;;;15.22;56.79;102613.50;5073703;28;20059;-64
2023/05/30 08:16:45;;;;;;;12.63;7.32;;;;;;;15.54;57.03;102629.66;5074282;28;20040;-64
2023/05/30 08:19:11;;;;;;;16.83;7.32;;;;;;;15.71;56.08;102620.72;5072685;28;20391;-65
2023/05/30 08:21:39;;;;;;;18.50;8.27;;;;;;;15.42;55.64;102628.53;5074389;28;20464;-65
2023/05/30 08:24:05;;;;;;;21.00;8.40;;;;;;;15.21;55.87;102627.88;5073639;28;20361;-65
2023/05/30 08:26:31;;;;;;;16.80;7.55;;;;;;;14.95;57.05;102622.09;5072795;28;20119;-64
2023/05/30 08:28:57;;;;;;;13.10;6.88;;;;;;;15.01;57.28;102631.63;5073556;28;20012;-64
2023/05/30 08:31:23;;;;;;;16.38;7.35;;;;;;;15.04;56.74;102622.56;5074075;28;20028;-64
2023/05/30 08:33:48;;;;;;;12.57;6.45;;;;;;;15.16;55.92;102625.44;5071932;28;20028;-65
2023/05/30 08:36:16;;;;;;;19.05;7.07;;;;;;;15.02;57.15;102619.09;5073989;28;20547;-65
2023/05/30 08:38:41;;;;;;;16.42;7.65;;;;;;;15.14;56.07;102615.75;5072640;28;20482;-64
2023/05/30 08:41:07;;;;;;;17.55;7.57;;;;;;;15.17;56.94;102613.75;5072600;28;20032;-65
2023/05/30 08:43:33;;;;;;;14.80;7.28;;;;;;;15.24;55.53;102616.13;5072131;28;20090;-65
2023/05/30 08:46:04;;;;;;;12.45;7.50;;;;;;;15.53;55.90;102615.38;5073422;28;20028;-65
2023/05/30 08:48:33;;;;;;;15.88;7.50;;;;;;;15.69;54.79;102615.41;5073397;28;20012;-64
2023/05/30 08:50:59;;;;;;;;;;;;;;;16.05;54.97;102609.75;5074357;28;20395;-65
2023/05/30 08:53:32;;;;;;;14.50;7.00;;;;;;;15.93;53.94;102621.19;5073235;28;19912;-65
2023/05/30 08:56:13;;;;;;;14.95;8.07;;;;;;;16.07;54.38;102607.84;5073138;28;20048;-65
2023/05/30 08:58:50;;;;;;;13.73;6.97;;;;;;;16.26;53.45;102604.94;5073157;28;20485;-65
2023/05/30 09:01:16;;;;;;;16.67;7.75;;;;;;;16.25;52.66;102607.72;5072780;28;20016;-65
2023/05/30 09:03:44;;;;;;;14.18;7.15;;;;;;;16.41;53.08;102603.16;5071916;28;20055;-65
2023/05/30 09:06:13;;;;;;;14.35;7.38;;;;;;;16.50;51.64;102608.00;5073579;28;20112;-65
2023/05/30 09:08:43;;;;;;;13.63;7.38;;;;;;;16.54;50.92;102604.19;5072431;28;20020;-65
2023/05/30 09:11:09;;;;;;;15.65;7.78;;;;;;;16.82;50.49;102594.47;5073442;28;20963;-65
2023/05/30 09:13:34;;;;;;;16.60;8.50;;;;;;;16.63;50.96;102597.38;5072786;28;20060;-65
2023/05/30 09:16:02;;;;;;;17.15;7.90;;;;;;;16.87;51.41;102596.88;5071469;28;20108;-65
2023/05/30 09:18:37;;;;;;;14.75;8.07;;;;;;;17.16;51.35;102600.44;5071592;28;20024;-65
2023/05/30 09:21:02;;;;;;;17.48;8.15;;;;;;;17.21;49.77;102598.34;5073103;28;20438;-65
2023/05/30 09:23:29;;;;;;;13.13;8.43;;;;;;;17.39;49.88;102594.47;5072728;28;20036;-65
2023/05/30 09:25:59;;;;;;;17.50;7.68;;;;;;;17.51;49.25;102597.34;5072289;28;20020;-65
2023/05/30 09:28:26;;;;;;;16.63;8.07;;;;;;;17.56;49.73;102588.00;5072887;28;20391;-65
2023/05/30 09:30:59;;;;;;;19.23;8.63;;;;;;;17.76;49.45;102592.06;5071044;28;20394;-65
2023/05/30 09:33:41;;;;;;;12.38;7.70;;;;;;;17.88;48.97;102593.13;5071171;28;20055;-65
2023/05/30 09:36:07;;;;;;;15.13;7.60;;;;;;;17.99;49.73;102579.81;5071251;28;20537;-65
2023/05/30 09:38:33;;;;;;;16.05;9.00;;;;;;;18.10;49.45;102584.50;5072455;28;20028;-64
2023/05/30 09:41:03;;;;;;;14.00;7.95;;;;;;;18.30;48.31;102583.16;5071315;28;20028;-64
2023/05/30 09:43:34;;;;;;;14.80;8.02;;;;;;;18.36;48.94;102580.03;5072438;28;20527;-64
2023/05/30 09:46:03;;;;;;;13.80;8.60;;;;;;;18.48;47.79;102575.63;5071836;28;20032;-64
2023/05/30 09:48:29;;;;;;;15.95;8.40;;;;;;;18.50;47.59;102571.88;5072460;28;20021;-64
2023/05/30 09:51:00;;;;;;;16.48;8.50;;;;;;;18.53;49.59;102576.16;5072446;28;20497;-64
2023/05/30 09:53:32;;;;;;;13.90;8.63;;;;;;;18.93;46.98;102571.56;5072248;28;20035;-65
2023/05/30 09:55:58;;;;;;;16.27;8.20;;;;;;;18.97;45.91;102577.59;5072259;28;20072;-64
2023/05/30 09:58:24;;;;;;;12.68;8.52;;;;;;;19.17;45.23;102590.53;5072331;28;20547;-65
2023/05/30 10:00:54;;;;;;;13.23;8.25;;;;;;;19.09;46.01;102567.78;5071602;28;20107;-65
2023/05/30 10:03:21;;;;;;;15.02;7.88;;;;;;;19.12;44.76;102562.16;5071860;28;20387;-65
2023/05/30 10:05:47;;;;;;;15.95;9.10;;;;;;;19.12;46.23;102557.66;5072209;28;20027;-64
2023/05/30 10:08:16;;;;;;;19.05;9.02;;;;;;;19.22;44.83;102560.53;5072314;28;20024;-65
2023/05/30 10:10:41;;;;;;;14.48;8.82;;;;;;;19.16;44.59;102572.63;5071132;28;20020;-65
2023/05/30 10:13:06;;;;;;;13.85;9.00;;;;;;;19.33;45.00;102555.22;5072239;28;20037;-65
2023/05/30 10:15:32;;;;;;;13.52;8.65;;;;;;;19.52;44.79;102560.13;5071017;28;20036;-65
2023/05/30 10:18:09;;;;;;;17.90;8.40;;;;;;;19.65;44.52;102563.69;5070626;28;20051;-65
2023/05/30 10:20:44;;;;;;;14.13;8.20;;;;;;;19.92;44.69;102562.59;5071904;28;20032;-64
2023/05/30 10:23:12;;;;;;;14.60;8.30;;;;;;;19.80;43.56;102568.94;5072404;28;20475;-65
2023/05/30 10:25:43;;;;;;;19.23;9.68;;;;;;;19.83;45.36;102574.09;5064820;28;20039;-65
2023/05/30 10:28:17;;;;;;;17.70;8.23;;;;;;;19.96;43.77;102562.22;5072067;28;20024;-65
2023/05/30 10:30:47;;;;;;;17.17;9.10;;;;;;;20.30;42.99;102567.78;5070916;28;20081;-65
2023/05/30 10:33:13;;;;;;;;;;;;;;;20.63;43.41;102558.06;5072320;28;20077;-65
2023/05/30 10:35:39;;;;;;;14.32;8.68;;;;;;;20.34;42.88;102557.59;5071448;28;19919;-65
2023/05/30 10:38:07;;;;;;;16.20;8.13;;;;;;;20.51;42.24;102553.59;5069426;28;20535;-65
2023/05/30 10:40:52;;;;;;;15.02;8.85;;;;;;;20.57;42.07;102555.84;5070251;28;20059;-65
2023/05/30 10:43:36;;;;;;;16.35;8.48;;;;;;;20.65;41.37;102548.00;5071986;28;20085;-65
2023/05/30 10:46:16;;;;;;;14.18;8.32;;;;;;;20.62;40.92;102549.09;5069547;28;20028;-65
2023/05/30 10:48:53;;;;;;;13.50;7.57;;;;;;;20.71;42.06;102544.81;5070422;28;20111;-65
2023/05/30 10:51:19;;;;;;;19.40;8.50;;;;;;;20.78;41.47;102548.72;5053648;28;20032;-65
2023/05/30 10:53:46;;;;;;;12.07;8.57;;;;;;;20.83;41.41;102540.25;5071677;28;20020;-65
2023/05/30 10:56:27;;;;;;;18.25;8.85;;;;;;;20.90;41.40;102536.06;5071416;28;20040;-65
2023/05/30 10:58:56;;;;;;;14.50;7.78;;;;;;;20.97;40.51;102526.50;5070816;28;20025;-66
2023/05/30 11:01:34;;;;;;;15.27;8.15;;;;;;;21.00;41.22;102528.94;5070389;28;20029;-65
2023/05/30 11:04:01;;;;;;;15.40;8.20;;;;;;;21.15;41.14;102525.97;5070171;28;20115;-65
2023/05/30 11:06:30;;;;;;;17.23;8.43;;;;;;;21.17;42.68;102530.25;5069965;28;20020;-65
2023/05/30 11:09:05;;;;;;;13.80;7.63;;;;;;;21.43;41.31;102530.88;5051559;28;20484;-65
2023/05/30 11:11:54;;;;;;;15.55;7.97;;;;;;;21.55;40.12;102527.16;5051611;28;20483;-65
2023/05/30 11:14:32;;;;;;;12.38;7.28;;;;;;;21.32;39.60;102510.09;5049344;28;20448;-65
2023/05/30 11:17:05;;;;;;;13.05;7.40;;;;;;;21.57;39.94;102526.19;5063046;28;20020;-65
2023/05/30 11:19:40;;;;;;;14.90;7.75;;;;;;;21.75;40.00;102524.63;5069899;28;20436;-65